sensor_id;sensor_type;location;lat;lon;timestamp;pressure;altitude;pressure_sealevel;temperature;humidity
40948;BME280;49382;-25.924;28.194;2023-03-26T00:00:54;85200.14;;;18.94;50.93
40948;BME280;49382;-25.924;28.194;2023-03-26T00:03:21;85210.00;;;21.23;46.05
40948;BME280;49382;-25.924;28.194;2023-03-26T00:05:46;85222.11;;;20.93;45.78
40948;BME280;49382;-25.924;28.194;2023-03-26T00:08:12;85228.89;;;20.92;46.62
40948;BME280;49382;-25.924;28.194;2023-03-26T00:10:39;85224.83;;;20.90;46.23
40948;BME280;49382;-25.924;28.194;2023-03-26T00:13:04;85219.24;;;20.80;46.14
40948;BME280;49382;-25.924;28.194;2023-03-26T00:15:30;85216.27;;;21.07;45.53
40948;BME280;49382;-25.924;28.194;2023-03-26T00:17:55;85218.24;;;20.73;46.34
40948;BME280;49382;-25.924;28.194;2023-03-26T00:20:21;85224.40;;;19.15;48.77
40948;BME280;49382;-25.924;28.194;2023-03-26T00:22:47;85226.47;;;20.71;47.14
40948;BME280;49382;-25.924;28.194;2023-03-26T00:25:13;85225.45;;;20.95;45.94
40948;BME280;49382;-25.924;28.194;2023-03-26T00:27:38;85216.39;;;21.35;45.94
40948;BME280;49382;-25.924;28.194;2023-03-26T00:30:05;85208.09;;;20.95;45.84
40948;BME280;49382;-25.924;28.194;2023-03-26T00:32:30;85193.58;;;20.64;46.77
40948;BME280;49382;-25.924;28.194;2023-03-26T00:34:56;85190.88;;;20.64;46.94
40948;BME280;49382;-25.924;28.194;2023-03-26T00:37:22;85195.90;;;20.76;46.42
40948;BME280;49382;-25.924;28.194;2023-03-26T00:39:47;85195.27;;;20.83;46.18
40948;BME280;49382;-25.924;28.194;2023-03-26T00:44:39;85204.56;;;21.84;44.23
40948;BME280;49382;-25.924;28.194;2023-03-26T00:47:05;85206.77;;;21.55;44.72
40948;BME280;49382;-25.924;28.194;2023-03-26T00:49:31;85198.22;;;21.26;45.11
40948;BME280;49382;-25.924;28.194;2023-03-26T00:51:57;85190.24;;;20.99;44.70
40948;BME280;49382;-25.924;28.194;2023-03-26T00:54:22;85184.84;;;20.90;45.56
40948;BME280;49382;-25.924;28.194;2023-03-26T00:56:48;85183.67;;;20.39;46.74
40948;BME280;49382;-25.924;28.194;2023-03-26T00:59:14;85190.39;;;20.94;45.96
40948;BME280;49382;-25.924;28.194;2023-03-26T01:01:40;85186.07;;;20.28;46.86
40948;BME280;49382;-25.924;28.194;2023-03-26T01:06:32;85195.71;;;20.96;45.15
40948;BME280;49382;-25.924;28.194;2023-03-26T01:08:57;85198.65;;;21.26;44.86
40948;BME280;49382;-25.924;28.194;2023-03-26T01:11:26;85202.79;;;21.19;44.91
40948;BME280;49382;-25.924;28.194;2023-03-26T01:13:50;85200.04;;;21.43;45.53
40948;BME280;49382;-25.924;28.194;2023-03-26T01:16:20;85192.60;;;20.83;45.80
40948;BME280;49382;-25.924;28.194;2023-03-26T01:18:40;85186.91;;;20.54;45.06
40948;BME280;49382;-25.924;28.194;2023-03-26T01:21:07;85186.53;;;20.65;45.37
40948;BME280;49382;-25.924;28.194;2023-03-26T01:23:38;85182.90;;;21.08;45.88
40948;BME280;49382;-25.924;28.194;2023-03-26T01:26:04;85169.47;;;20.93;45.70
40948;BME280;49382;-25.924;28.194;2023-03-26T01:28:23;85164.53;;;20.91;46.43
40948;BME280;49382;-25.924;28.194;2023-03-26T01:30:54;85164.64;;;20.87;46.50
40948;BME280;49382;-25.924;28.194;2023-03-26T01:33:19;85162.17;;;20.76;46.49
40948;BME280;49382;-25.924;28.194;2023-03-26T01:35:45;85160.01;;;20.70;46.46
40948;BME280;49382;-25.924;28.194;2023-03-26T01:38:14;85169.94;;;20.85;46.27
40948;BME280;49382;-25.924;28.194;2023-03-26T01:40:35;85177.61;;;21.04;46.41
40948;BME280;49382;-25.924;28.194;2023-03-26T01:43:02;85180.18;;;21.08;46.15
40948;BME280;49382;-25.924;28.194;2023-03-26T01:45:25;85183.05;;;20.63;46.21
40948;BME280;49382;-25.924;28.194;2023-03-26T01:47:47;85181.93;;;20.61;46.61
40948;BME280;49382;-25.924;28.194;2023-03-26T01:50:12;85183.65;;;21.02;44.96
40948;BME280;49382;-25.924;28.194;2023-03-26T01:52:37;85182.83;;;20.90;45.90
40948;BME280;49382;-25.924;28.194;2023-03-26T01:55:02;85174.84;;;21.53;45.40
40948;BME280;49382;-25.924;28.194;2023-03-26T01:57:34;85167.11;;;20.55;46.49
40948;BME280;49382;-25.924;28.194;2023-03-26T02:00:02;85163.51;;;20.22;47.16
40948;BME280;49382;-25.924;28.194;2023-03-26T02:02:23;85157.01;;;20.26;46.84
40948;BME280;49382;-25.924;28.194;2023-03-26T02:04:48;85158.69;;;20.61;46.64
40948;BME280;49382;-25.924;28.194;2023-03-26T02:07:11;85156.56;;;18.81;49.94
40948;BME280;49382;-25.924;28.194;2023-03-26T02:09:36;85155.09;;;20.15;47.77
40948;BME280;49382;-25.924;28.194;2023-03-26T02:12:00;85145.25;;;20.89;45.60
40948;BME280;49382;-25.924;28.194;2023-03-26T02:14:24;85143.96;;;21.17;44.93
40948;BME280;49382;-25.924;28.194;2023-03-26T02:16:49;85145.45;;;20.97;45.23
40948;BME280;49382;-25.924;28.194;2023-03-26T02:19:15;85139.89;;;20.49;46.49
40948;BME280;49382;-25.924;28.194;2023-03-26T02:21:39;85140.07;;;20.22;46.47
40948;BME280;49382;-25.924;28.194;2023-03-26T02:24:04;85143.94;;;21.06;45.55
40948;BME280;49382;-25.924;28.194;2023-03-26T02:26:31;85145.89;;;21.46;44.88
40948;BME280;49382;-25.924;28.194;2023-03-26T02:28:54;85144.76;;;21.44;44.93
40948;BME280;49382;-25.924;28.194;2023-03-26T02:31:19;85141.58;;;21.35;44.60
40948;BME280;49382;-25.924;28.194;2023-03-26T02:33:45;85138.89;;;21.08;44.50
40948;BME280;49382;-25.924;28.194;2023-03-26T02:36:10;85138.63;;;20.79;44.75
40948;BME280;49382;-25.924;28.194;2023-03-26T02:38:35;85136.30;;;20.75;45.81
40948;BME280;49382;-25.924;28.194;2023-03-26T02:41:00;85130.13;;;20.97;45.71
40948;BME280;49382;-25.924;28.194;2023-03-26T02:43:25;85130.37;;;20.84;44.62
40948;BME280;49382;-25.924;28.194;2023-03-26T02:45:50;85128.07;;;20.39;45.00
40948;BME280;49382;-25.924;28.194;2023-03-26T02:48:15;85136.26;;;20.81;45.39
40948;BME280;49382;-25.924;28.194;2023-03-26T02:50:40;85146.52;;;20.08;46.61
40948;BME280;49382;-25.924;28.194;2023-03-26T02:53:06;85148.86;;;20.77;45.59
40948;BME280;49382;-25.924;28.194;2023-03-26T02:55:31;85151.23;;;20.84;45.64
40948;BME280;49382;-25.924;28.194;2023-03-26T02:57:57;85153.89;;;20.39;46.33
40948;BME280;49382;-25.924;28.194;2023-03-26T03:00:22;85157.03;;;20.66;46.33
40948;BME280;49382;-25.924;28.194;2023-03-26T03:02:48;85159.65;;;20.44;45.85
40948;BME280;49382;-25.924;28.194;2023-03-26T03:05:13;85166.42;;;20.62;45.73
40948;BME280;49382;-25.924;28.194;2023-03-26T03:07:38;85165.09;;;20.63;45.43
40948;BME280;49382;-25.924;28.194;2023-03-26T03:10:03;85162.31;;;20.48;45.47
40948;BME280;49382;-25.924;28.194;2023-03-26T03:12:28;85168.53;;;20.95;45.33
40948;BME280;49382;-25.924;28.194;2023-03-26T03:14:54;85174.23;;;20.93;45.34
40948;BME280;49382;-25.924;28.194;2023-03-26T03:17:20;85179.55;;;20.83;45.21
40948;BME280;49382;-25.924;28.194;2023-03-26T03:19:46;85185.08;;;21.42;45.02
40948;BME280;49382;-25.924;28.194;2023-03-26T03:22:12;85187.51;;;21.28;45.06
40948;BME280;49382;-25.924;28.194;2023-03-26T03:24:37;85192.63;;;21.38;44.91
40948;BME280;49382;-25.924;28.194;2023-03-26T03:27:03;85188.49;;;20.58;45.58
40948;BME280;49382;-25.924;28.194;2023-03-26T03:29:29;85190.05;;;20.49;45.67
40948;BME280;49382;-25.924;28.194;2023-03-26T03:31:55;85183.38;;;20.29;44.72
40948;BME280;49382;-25.924;28.194;2023-03-26T03:34:21;85182.70;;;20.38;45.85
40948;BME280;49382;-25.924;28.194;2023-03-26T03:36:47;85189.82;;;20.02;46.06
40948;BME280;49382;-25.924;28.194;2023-03-26T03:39:12;85188.66;;;20.41;45.58
40948;BME280;49382;-25.924;28.194;2023-03-26T03:41:38;85185.04;;;19.59;48.33
40948;BME280;49382;-25.924;28.194;2023-03-26T03:44:04;85184.26;;;18.69;49.91
40948;BME280;49382;-25.924;28.194;2023-03-26T03:46:30;85186.72;;;20.70;45.63
40948;BME280;49382;-25.924;28.194;2023-03-26T03:48:55;85192.17;;;21.01;45.43
40948;BME280;49382;-25.924;28.194;2023-03-26T03:51:20;85200.77;;;21.18;45.28
40948;BME280;49382;-25.924;28.194;2023-03-26T03:53:46;85206.07;;;21.18;44.76
40948;BME280;49382;-25.924;28.194;2023-03-26T03:56:12;85206.05;;;20.77;45.34
40948;BME280;49382;-25.924;28.194;2023-03-26T03:58:37;85207.99;;;21.21;44.35
40948;BME280;49382;-25.924;28.194;2023-03-26T04:01:03;85209.44;;;21.24;44.14
40948;BME280;49382;-25.924;28.194;2023-03-26T04:03:30;85207.80;;;21.49;44.53
40948;BME280;49382;-25.924;28.194;2023-03-26T04:05:55;85205.33;;;21.25;44.94
40948;BME280;49382;-25.924;28.194;2023-03-26T04:08:21;85205.92;;;21.05;45.33
40948;BME280;49382;-25.924;28.194;2023-03-26T04:10:47;85204.66;;;21.00;45.43
40948;BME280;49382;-25.924;28.194;2023-03-26T04:13:13;85201.58;;;20.38;45.93
40948;BME280;49382;-25.924;28.194;2023-03-26T04:15:38;85206.05;;;20.40;46.18
40948;BME280;49382;-25.924;28.194;2023-03-26T04:18:04;85211.10;;;20.40;46.09
40948;BME280;49382;-25.924;28.194;2023-03-26T04:20:30;85211.02;;;20.39;45.67
40948;BME280;49382;-25.924;28.194;2023-03-26T04:22:56;85211.19;;;20.20;45.81
40948;BME280;49382;-25.924;28.194;2023-03-26T04:25:21;85210.63;;;20.32;45.29
40948;BME280;49382;-25.924;28.194;2023-03-26T04:27:48;85207.38;;;20.13;46.45
40948;BME280;49382;-25.924;28.194;2023-03-26T04:30:16;85212.80;;;20.17;46.89
40948;BME280;49382;-25.924;28.194;2023-03-26T04:32:39;85216.88;;;20.39;46.66
40948;BME280;49382;-25.924;28.194;2023-03-26T04:35:05;85215.90;;;20.23;46.83
40948;BME280;49382;-25.924;28.194;2023-03-26T04:37:32;85216.30;;;19.84;47.06
40948;BME280;49382;-25.924;28.194;2023-03-26T04:39:55;85211.14;;;20.93;45.80
40948;BME280;49382;-25.924;28.194;2023-03-26T04:42:21;85209.88;;;20.41;46.47
40948;BME280;49382;-25.924;28.194;2023-03-26T04:44:46;85213.06;;;20.88;46.13
40948;BME280;49382;-25.924;28.194;2023-03-26T04:47:11;85220.56;;;20.86;46.00
40948;BME280;49382;-25.924;28.194;2023-03-26T04:49:36;85226.12;;;20.62;47.33
40948;BME280;49382;-25.924;28.194;2023-03-26T04:52:02;85232.39;;;20.75;47.48
40948;BME280;49382;-25.924;28.194;2023-03-26T04:54:27;85235.50;;;20.95;47.55
40948;BME280;49382;-25.924;28.194;2023-03-26T04:56:56;85239.55;;;21.39;46.77
40948;BME280;49382;-25.924;28.194;2023-03-26T04:59:21;85236.97;;;20.62;47.58
40948;BME280;49382;-25.924;28.194;2023-03-26T05:01:45;85242.29;;;20.51;47.55
40948;BME280;49382;-25.924;28.194;2023-03-26T05:04:11;85251.79;;;20.29;47.71
40948;BME280;49382;-25.924;28.194;2023-03-26T05:06:36;85261.14;;;21.81;46.08
40948;BME280;49382;-25.924;28.194;2023-03-26T05:09:02;85265.56;;;22.25;45.22
40948;BME280;49382;-25.924;28.194;2023-03-26T05:11:28;85271.18;;;22.36;45.26
40948;BME280;49382;-25.924;28.194;2023-03-26T05:13:54;85279.02;;;22.14;44.84
40948;BME280;49382;-25.924;28.194;2023-03-26T05:16:20;85282.08;;;22.24;44.69
40948;BME280;49382;-25.924;28.194;2023-03-26T05:18:46;85284.82;;;22.76;44.55
40948;BME280;49382;-25.924;28.194;2023-03-26T05:21:12;85284.57;;;22.50;44.90
40948;BME280;49382;-25.924;28.194;2023-03-26T05:23:37;85284.35;;;22.88;43.84
40948;BME280;49382;-25.924;28.194;2023-03-26T05:26:03;85281.99;;;22.60;44.10
40948;BME280;49382;-25.924;28.194;2023-03-26T05:28:29;85283.86;;;22.78;43.42
40948;BME280;49382;-25.924;28.194;2023-03-26T05:30:55;85288.49;;;22.89;44.12
40948;BME280;49382;-25.924;28.194;2023-03-26T05:33:21;85291.58;;;22.65;44.33
40948;BME280;49382;-25.924;28.194;2023-03-26T05:35:46;85289.75;;;22.58;43.35
40948;BME280;49382;-25.924;28.194;2023-03-26T05:38:12;85288.80;;;23.24;42.65
40948;BME280;49382;-25.924;28.194;2023-03-26T05:40:38;85290.82;;;23.50;41.73
40948;BME280;49382;-25.924;28.194;2023-03-26T05:43:04;85287.78;;;23.69;41.48
40948;BME280;49382;-25.924;28.194;2023-03-26T05:45:29;85287.96;;;23.47;42.25
40948;BME280;49382;-25.924;28.194;2023-03-26T05:47:55;85291.97;;;23.71;42.72
40948;BME280;49382;-25.924;28.194;2023-03-26T05:50:21;85296.41;;;22.86;43.04
40948;BME280;49382;-25.924;28.194;2023-03-26T05:52:47;85295.42;;;23.94;41.30
40948;BME280;49382;-25.924;28.194;2023-03-26T05:55:13;85298.93;;;23.54;41.42
40948;BME280;49382;-25.924;28.194;2023-03-26T05:57:39;85306.08;;;23.49;41.64
40948;BME280;49382;-25.924;28.194;2023-03-26T06:00:05;85305.98;;;23.87;42.11
40948;BME280;49382;-25.924;28.194;2023-03-26T06:02:29;85312.24;;;23.93;41.42
40948;BME280;49382;-25.924;28.194;2023-03-26T06:04:55;85315.02;;;23.94;40.45
40948;BME280;49382;-25.924;28.194;2023-03-26T06:07:21;85318.89;;;23.97;40.56
40948;BME280;49382;-25.924;28.194;2023-03-26T06:09:47;85318.71;;;24.49;40.28
40948;BME280;49382;-25.924;28.194;2023-03-26T06:12:13;85318.59;;;23.89;41.80
40948;BME280;49382;-25.924;28.194;2023-03-26T06:14:38;85322.55;;;24.70;39.89
40948;BME280;49382;-25.924;28.194;2023-03-26T06:17:03;85326.08;;;24.77;40.31
40948;BME280;49382;-25.924;28.194;2023-03-26T06:19:29;85326.60;;;24.08;41.98
40948;BME280;49382;-25.924;28.194;2023-03-26T06:21:55;85327.79;;;24.58;41.66
40948;BME280;49382;-25.924;28.194;2023-03-26T06:24:21;85329.03;;;25.27;40.92
40948;BME280;49382;-25.924;28.194;2023-03-26T06:26:46;85328.35;;;23.65;42.02
40948;BME280;49382;-25.924;28.194;2023-03-26T06:29:12;85329.18;;;23.93;42.61
40948;BME280;49382;-25.924;28.194;2023-03-26T06:31:38;85327.24;;;24.01;41.90
40948;BME280;49382;-25.924;28.194;2023-03-26T06:34:03;85328.83;;;24.45;41.01
40948;BME280;49382;-25.924;28.194;2023-03-26T06:36:29;85326.79;;;25.00;40.43
40948;BME280;49382;-25.924;28.194;2023-03-26T06:38:54;85325.98;;;24.87;40.92
40948;BME280;49382;-25.924;28.194;2023-03-26T06:41:20;85318.79;;;25.76;39.11
40948;BME280;49382;-25.924;28.194;2023-03-26T06:43:46;85322.39;;;24.87;41.78
40948;BME280;49382;-25.924;28.194;2023-03-26T06:46:11;85325.67;;;25.76;40.14
40948;BME280;49382;-25.924;28.194;2023-03-26T06:48:38;85323.92;;;25.48;39.92
40948;BME280;49382;-25.924;28.194;2023-03-26T06:51:03;85320.53;;;25.79;38.99
40948;BME280;49382;-25.924;28.194;2023-03-26T06:53:28;85318.57;;;25.64;38.68
40948;BME280;49382;-25.924;28.194;2023-03-26T06:55:54;85322.15;;;26.09;38.17
40948;BME280;49382;-25.924;28.194;2023-03-26T06:58:20;85322.10;;;25.63;39.72
40948;BME280;49382;-25.924;28.194;2023-03-26T07:00:46;85326.21;;;25.51;40.00
40948;BME280;49382;-25.924;28.194;2023-03-26T07:03:11;85324.24;;;24.70;40.62
40948;BME280;49382;-25.924;28.194;2023-03-26T07:05:37;85318.62;;;25.54;39.40
40948;BME280;49382;-25.924;28.194;2023-03-26T07:08:04;85319.18;;;25.17;39.75
40948;BME280;49382;-25.924;28.194;2023-03-26T07:10:29;85324.89;;;25.29;39.99
40948;BME280;49382;-25.924;28.194;2023-03-26T07:12:55;85328.29;;;25.42;40.02
40948;BME280;49382;-25.924;28.194;2023-03-26T07:15:20;85329.56;;;26.46;38.83
40948;BME280;49382;-25.924;28.194;2023-03-26T07:17:46;85323.64;;;26.28;39.20
40948;BME280;49382;-25.924;28.194;2023-03-26T07:20:12;85318.98;;;25.34;40.14
40948;BME280;49382;-25.924;28.194;2023-03-26T07:22:38;85323.12;;;26.05;39.47
40948;BME280;49382;-25.924;28.194;2023-03-26T07:25:05;85325.86;;;25.96;38.05
40948;BME280;49382;-25.924;28.194;2023-03-26T07:27:35;85321.68;;;26.02;38.51
40948;BME280;49382;-25.924;28.194;2023-03-26T07:30:00;85325.56;;;25.96;38.17
40948;BME280;49382;-25.924;28.194;2023-03-26T07:32:24;85322.54;;;25.71;38.45
40948;BME280;49382;-25.924;28.194;2023-03-26T07:34:52;85320.73;;;25.59;38.27
40948;BME280;49382;-25.924;28.194;2023-03-26T07:37:19;85323.25;;;25.64;38.84
40948;BME280;49382;-25.924;28.194;2023-03-26T07:39:45;85327.13;;;26.47;38.28
40948;BME280;49382;-25.924;28.194;2023-03-26T07:42:11;85325.88;;;26.34;38.65
40948;BME280;49382;-25.924;28.194;2023-03-26T07:44:41;85322.01;;;26.52;38.57
40948;BME280;49382;-25.924;28.194;2023-03-26T07:46:56;85318.78;;;26.22;38.68
40948;BME280;49382;-25.924;28.194;2023-03-26T07:49:21;85314.34;;;26.62;37.96
40948;BME280;49382;-25.924;28.194;2023-03-26T07:51:47;85315.69;;;27.40;37.72
40948;BME280;49382;-25.924;28.194;2023-03-26T07:54:13;85312.87;;;26.95;38.93
40948;BME280;49382;-25.924;28.194;2023-03-26T07:56:44;85313.84;;;27.99;38.15
40948;BME280;49382;-25.924;28.194;2023-03-26T07:59:13;85310.13;;;28.21;37.02
40948;BME280;49382;-25.924;28.194;2023-03-26T08:01:41;85304.52;;;28.59;36.90
40948;BME280;49382;-25.924;28.194;2023-03-26T08:04:03;85307.77;;;28.22;36.92
40948;BME280;49382;-25.924;28.194;2023-03-26T08:06:27;85305.76;;;28.03;37.47
40948;BME280;49382;-25.924;28.194;2023-03-26T08:08:52;85303.31;;;27.58;36.06
40948;BME280;49382;-25.924;28.194;2023-03-26T08:11:20;85304.20;;;28.76;35.88
40948;BME280;49382;-25.924;28.194;2023-03-26T08:13:41;85299.54;;;28.34;36.57
40948;BME280;49382;-25.924;28.194;2023-03-26T08:16:07;85300.77;;;27.07;36.84
40948;BME280;49382;-25.924;28.194;2023-03-26T08:18:38;85300.40;;;27.87;35.66
40948;BME280;49382;-25.924;28.194;2023-03-26T08:20:59;85295.12;;;26.80;39.26
40948;BME280;49382;-25.924;28.194;2023-03-26T08:23:26;85301.04;;;28.43;37.12
40948;BME280;49382;-25.924;28.194;2023-03-26T08:25:52;85294.59;;;27.88;35.35
40948;BME280;49382;-25.924;28.194;2023-03-26T08:28:19;85291.39;;;27.49;36.49
40948;BME280;49382;-25.924;28.194;2023-03-26T08:30:36;85295.04;;;28.62;35.23
40948;BME280;49382;-25.924;28.194;2023-03-26T08:33:10;85291.64;;;28.34;36.04
40948;BME280;49382;-25.924;28.194;2023-03-26T08:35:27;85287.68;;;28.73;35.47
40948;BME280;49382;-25.924;28.194;2023-03-26T08:37:53;85284.29;;;28.00;36.54
40948;BME280;49382;-25.924;28.194;2023-03-26T08:45:22;85277.11;;;27.72;36.53
40948;BME280;49382;-25.924;28.194;2023-03-26T08:52:34;85264.30;;;27.38;36.83
40948;BME280;49382;-25.924;28.194;2023-03-26T08:59:56;85256.06;;;26.58;37.11
40948;BME280;49382;-25.924;28.194;2023-03-26T09:02:21;85252.20;;;28.93;34.12
40948;BME280;49382;-25.924;28.194;2023-03-26T09:12:04;85245.06;;;29.84;34.39
40948;BME280;49382;-25.924;28.194;2023-03-26T09:14:35;85246.41;;;29.72;33.63
40948;BME280;49382;-25.924;28.194;2023-03-26T09:26:38;85226.98;;;29.74;34.31
40948;BME280;49382;-25.924;28.194;2023-03-26T09:31:28;85223.93;;;29.33;33.89
40948;BME280;49382;-25.924;28.194;2023-03-26T09:36:19;85219.59;;;29.57;32.61
40948;BME280;49382;-25.924;28.194;2023-03-26T09:38:43;85218.76;;;29.37;33.67
40948;BME280;49382;-25.924;28.194;2023-03-26T09:41:07;85220.12;;;28.91;34.00
40948;BME280;49382;-25.924;28.194;2023-03-26T09:43:40;85216.64;;;28.08;33.99
40948;BME280;49382;-25.924;28.194;2023-03-26T09:46:05;85215.88;;;28.80;32.58
40948;BME280;49382;-25.924;28.194;2023-03-26T09:48:32;85212.63;;;28.00;33.06
40948;BME280;49382;-25.924;28.194;2023-03-26T09:50:55;85209.64;;;28.21;32.31
40948;BME280;49382;-25.924;28.194;2023-03-26T09:53:19;85206.11;;;28.46;32.45
40948;BME280;49382;-25.924;28.194;2023-03-26T09:55:48;85206.04;;;28.73;32.30
40948;BME280;49382;-25.924;28.194;2023-03-26T10:00:31;85208.65;;;27.58;34.29
40948;BME280;49382;-25.924;28.194;2023-03-26T10:05:26;85200.93;;;29.25;32.18
40948;BME280;49382;-25.924;28.194;2023-03-26T10:07:57;85196.97;;;27.93;32.84
40948;BME280;49382;-25.924;28.194;2023-03-26T10:10:19;85193.32;;;26.26;34.14
40948;BME280;49382;-25.924;28.194;2023-03-26T10:12:40;85189.66;;;26.80;34.20
40948;BME280;49382;-25.924;28.194;2023-03-26T10:15:15;85191.77;;;27.02;32.90
40948;BME280;49382;-25.924;28.194;2023-03-26T10:17:39;85189.45;;;27.55;34.36
40948;BME280;49382;-25.924;28.194;2023-03-26T10:20:05;85189.99;;;28.11;32.38
40948;BME280;49382;-25.924;28.194;2023-03-26T10:22:31;85181.11;;;28.23;32.89
40948;BME280;49382;-25.924;28.194;2023-03-26T10:27:24;85175.32;;;27.66;33.82
40948;BME280;49382;-25.924;28.194;2023-03-26T10:37:00;85155.37;;;27.74;34.18
40948;BME280;49382;-25.924;28.194;2023-03-26T10:39:33;85152.79;;;28.42;32.11
40948;BME280;49382;-25.924;28.194;2023-03-26T10:41:54;85152.54;;;27.04;35.54
40948;BME280;49382;-25.924;28.194;2023-03-26T10:44:18;85144.19;;;27.45;34.05
40948;BME280;49382;-25.924;28.194;2023-03-26T10:51:40;85124.67;;;28.17;33.48
40948;BME280;49382;-25.924;28.194;2023-03-26T10:53:57;85121.69;;;26.60;33.60
40948;BME280;49382;-25.924;28.194;2023-03-26T10:56:25;85117.39;;;28.14;31.97
40948;BME280;49382;-25.924;28.194;2023-03-26T10:58:45;85114.17;;;27.26;33.57
40948;BME280;49382;-25.924;28.194;2023-03-26T11:01:16;85116.09;;;28.43;32.66
40948;BME280;49382;-25.924;28.194;2023-03-26T11:03:45;85110.77;;;27.37;33.84
40948;BME280;49382;-25.924;28.194;2023-03-26T11:06:11;85111.31;;;29.17;32.37
40948;BME280;49382;-25.924;28.194;2023-03-26T11:08:36;85109.22;;;29.08;32.84
40948;BME280;49382;-25.924;28.194;2023-03-26T11:10:58;85105.72;;;28.85;32.91
40948;BME280;49382;-25.924;28.194;2023-03-26T11:13:27;85103.17;;;29.11;32.55
40948;BME280;49382;-25.924;28.194;2023-03-26T11:15:49;85099.83;;;29.01;31.83
40948;BME280;49382;-25.924;28.194;2023-03-26T11:18:16;85098.09;;;28.36;33.70
40948;BME280;49382;-25.924;28.194;2023-03-26T11:20:40;85095.89;;;28.80;32.98
40948;BME280;49382;-25.924;28.194;2023-03-26T11:23:13;85092.44;;;27.86;33.44
40948;BME280;49382;-25.924;28.194;2023-03-26T11:25:38;85091.33;;;28.33;32.56
40948;BME280;49382;-25.924;28.194;2023-03-26T11:28:05;85080.43;;;28.40;33.19
40948;BME280;49382;-25.924;28.194;2023-03-26T11:30:28;85083.03;;;28.76;32.57
40948;BME280;49382;-25.924;28.194;2023-03-26T11:32:47;85081.39;;;28.96;32.92
40948;BME280;49382;-25.924;28.194;2023-03-26T11:35:18;85080.60;;;29.00;32.89
40948;BME280;49382;-25.924;28.194;2023-03-26T11:37:41;85081.39;;;29.37;31.68
40948;BME280;49382;-25.924;28.194;2023-03-26T11:40:10;85074.27;;;28.27;32.36
40948;BME280;49382;-25.924;28.194;2023-03-26T11:42:28;85074.68;;;28.19;32.23
40948;BME280;49382;-25.924;28.194;2023-03-26T11:44:56;85070.18;;;27.14;33.04
40948;BME280;49382;-25.924;28.194;2023-03-26T11:47:23;85074.38;;;28.09;32.01
40948;BME280;49382;-25.924;28.194;2023-03-26T11:49:47;85073.27;;;27.07;30.02
40948;BME280;49382;-25.924;28.194;2023-03-26T11:52:12;85073.21;;;27.91;30.32
40948;BME280;49382;-25.924;28.194;2023-03-26T11:54:37;85072.05;;;27.90;31.24
40948;BME280;49382;-25.924;28.194;2023-03-26T11:57:05;85068.95;;;27.30;30.44
40948;BME280;49382;-25.924;28.194;2023-03-26T11:59:31;85062.39;;;28.37;31.25
40948;BME280;49382;-25.924;28.194;2023-03-26T12:01:57;85056.48;;;27.75;30.86
40948;BME280;49382;-25.924;28.194;2023-03-26T12:04:25;85046.77;;;28.25;30.01
40948;BME280;49382;-25.924;28.194;2023-03-26T12:06:52;85048.01;;;27.54;32.13
40948;BME280;49382;-25.924;28.194;2023-03-26T12:09:16;85040.61;;;27.85;30.56
40948;BME280;49382;-25.924;28.194;2023-03-26T12:11:37;85047.70;;;29.16;30.68
40948;BME280;49382;-25.924;28.194;2023-03-26T12:14:04;85047.81;;;28.26;30.50
40948;BME280;49382;-25.924;28.194;2023-03-26T12:16:29;85048.71;;;27.19;30.86
40948;BME280;49382;-25.924;28.194;2023-03-26T12:18:59;85056.06;;;27.85;30.54
40948;BME280;49382;-25.924;28.194;2023-03-26T12:21:20;85048.08;;;28.10;29.14
40948;BME280;49382;-25.924;28.194;2023-03-26T12:23:52;85045.19;;;27.91;29.04
40948;BME280;49382;-25.924;28.194;2023-03-26T12:26:16;85040.48;;;28.11;28.47
40948;BME280;49382;-25.924;28.194;2023-03-26T12:28:37;85035.64;;;28.22;29.25
40948;BME280;49382;-25.924;28.194;2023-03-26T12:31:04;85033.61;;;28.32;28.03
40948;BME280;49382;-25.924;28.194;2023-03-26T12:33:30;85036.88;;;28.31;28.71
40948;BME280;49382;-25.924;28.194;2023-03-26T12:35:55;85036.13;;;27.41;29.00
40948;BME280;49382;-25.924;28.194;2023-03-26T12:38:28;85033.88;;;28.22;28.73
40948;BME280;49382;-25.924;28.194;2023-03-26T12:40:46;85036.11;;;28.01;28.60
40948;BME280;49382;-25.924;28.194;2023-03-26T12:45:38;85027.13;;;28.24;29.27
40948;BME280;49382;-25.924;28.194;2023-03-26T12:48:03;85031.04;;;27.38;30.42
40948;BME280;49382;-25.924;28.194;2023-03-26T12:50:32;85031.65;;;28.39;29.48
40948;BME280;49382;-25.924;28.194;2023-03-26T12:53:00;85027.14;;;28.59;29.19
40948;BME280;49382;-25.924;28.194;2023-03-26T12:57:52;85023.04;;;27.73;28.47
40948;BME280;49382;-25.924;28.194;2023-03-26T13:00:24;85021.75;;;28.08;28.01
40948;BME280;49382;-25.924;28.194;2023-03-26T13:05:13;85012.83;;;28.47;28.31
40948;BME280;49382;-25.924;28.194;2023-03-26T13:07:34;85013.05;;;27.05;29.04
40948;BME280;49382;-25.924;28.194;2023-03-26T13:12:30;85009.81;;;27.80;27.79
40948;BME280;49382;-25.924;28.194;2023-03-26T13:17:16;85012.08;;;27.91;26.51
40948;BME280;49382;-25.924;28.194;2023-03-26T13:19:41;85003.16;;;28.21;26.02
40948;BME280;49382;-25.924;28.194;2023-03-26T13:22:13;85007.05;;;28.56;26.21
40948;BME280;49382;-25.924;28.194;2023-03-26T13:24:36;85009.36;;;28.70;25.15
40948;BME280;49382;-25.924;28.194;2023-03-26T13:27:04;85003.72;;;27.28;26.83
40948;BME280;49382;-25.924;28.194;2023-03-26T13:29:24;85009.63;;;26.37;27.71
40948;BME280;49382;-25.924;28.194;2023-03-26T13:31:50;85007.30;;;27.69;26.23
40948;BME280;49382;-25.924;28.194;2023-03-26T13:34:17;84997.52;;;26.99;27.53
40948;BME280;49382;-25.924;28.194;2023-03-26T13:36:44;84997.32;;;27.68;26.40
40948;BME280;49382;-25.924;28.194;2023-03-26T13:39:13;84998.13;;;27.94;26.64
40948;BME280;49382;-25.924;28.194;2023-03-26T13:41:38;85000.79;;;28.15;26.93
40948;BME280;49382;-25.924;28.194;2023-03-26T13:44:03;85003.83;;;28.11;27.31